Time;durP1;ratioP1;P1;durP2;ratioP2;P2;SDS_P1;SDS_P2;PMS_P1;PMS_P2;Temp;Humidity;BMP_temperature;BMP_pressure;BME280_temperature;BME280_humidity;BME280_pressure;Samples;Min_cycle;Max_cycle;Signal;HPM_P1;HPM_P2
2023/06/06 00:01:40;;;;;;;4.77;2.40;;;;;;;;;;5055953;28;20531;-85
2023/06/06 00:04:06;;;;;;;4.73;1.37;;;;;;;;;;5073791;28;20421;-88
2023/06/06 00:06:35;;;;;;;3.80;1.70;;;;;;;;;;5074066;28;20413;-81
2023/06/06 00:09:04;;;;;;;4.43;2.70;;;;;;;;;;5055878;28;20424;-83
2023/06/06 00:11:35;;;;;;;4.07;1.20;;;;;;;;;;5073749;28;20420;-82
2023/06/06 00:14:01;;;;;;;7.90;2.00;;;;;;;;;;5073757;28;20475;-82
2023/06/06 00:16:27;;;;;;;5.53;1.30;;;;;;;;;;5073692;28;20409;-81
2023/06/06 00:18:55;;;;;;;3.90;1.73;;;;;;;;;;5073340;28;20182;-80
2023/06/06 00:21:21;;;;;;;4.10;1.30;;;;;;;;;;5073635;28;20207;-82
2023/06/06 00:23:47;;;;;;;3.20;1.27;;;;;;;;;;5073703;28;20500;-82
2023/06/06 00:26:13;;;;;;;3.10;1.40;;;;;;;;;;5073581;28;20424;-82
2023/06/06 00:28:39;;;;;;;2.60;1.50;;;;;;;;;;5072563;28;20769;-83
2023/06/06 00:31:05;;;;;;;6.00;2.30;;;;;;;;;;5055717;28;20780;-82
2023/06/06 00:33:31;;;;;;;2.93;1.03;;;;;;;;;;5073049;28;20458;-82
2023/06/06 00:35:57;;;;;;;2.47;1.33;;;;;;;;;;5073737;28;20772;-82
2023/06/06 00:38:23;;;;;;;3.27;1.37;;;;;;;;;;5073827;28;20226;-88
2023/06/06 00:40:49;;;;;;;4.07;1.50;;;;;;;;;;5073813;28;20264;-88
2023/06/06 00:43:14;;;;;;;3.63;1.80;;;;;;;;;;5069219;28;20908;-88
2023/06/06 00:45:40;;;;;;;4.50;1.43;;;;;;;;;;5093914;28;20789;-88
2023/06/06 00:48:06;;;;;;;5.87;1.50;;;;;;;;;;5093378;28;20410;-77
2023/06/06 00:50:34;;;;;;;2.60;1.70;;;;;;;;;;5093770;28;20623;-78
2023/06/06 00:53:01;;;;;;;4.70;2.30;;;;;;;;;;5093758;28;20485;-82
2023/06/06 00:55:27;;;;;;;2.87;1.37;;;;;;;;;;5093675;28;20449;-78
2023/06/06 00:57:53;;;;;;;3.23;2.13;;;;;;;;;;5093557;28;20431;-77
2023/06/06 01:00:19;;;;;;;2.73;1.80;;;;;;;;;;5093618;28;20182;-88
2023/06/06 01:02:47;;;;;;;2.63;2.10;;;;;;;;;;5092917;28;20457;-77
2023/06/06 01:05:13;;;;;;;4.47;1.80;;;;;;;;;;5093478;28;20414;-77
2023/06/06 01:07:42;;;;;;;3.40;1.50;;;;;;;;;;5093499;28;20406;-88
2023/06/06 01:10:09;;;;;;;3.20;1.87;;;;;;;;;;5093410;28;20406;-77
2023/06/06 01:12:43;;;;;;;2.67;1.80;;;;;;;;;;5093289;28;20409;-84
2023/06/06 01:15:16;;;;;;;4.57;3.80;;;;;;;;;;5093341;28;20477;-85
2023/06/06 01:17:46;;;;;;;2.90;2.30;;;;;;;;;;5093031;28;20763;-76
2023/06/06 01:20:12;;;;;;;3.43;2.03;;;;;;;;;;5093220;28;20464;-76
2023/06/06 01:22:38;;;;;;;2.97;1.30;;;;;;;;;;5093292;28;20418;-77
2023/06/06 01:25:06;;;;;;;2.70;1.40;;;;;;;;;;5093275;28;20413;-78
2023/06/06 01:27:33;;;;;;;4.13;1.67;;;;;;;;;;5093143;28;20441;-84
2023/06/06 01:30:00;;;;;;;5.00;2.00;;;;;;;;;;5093202;28;20409;-77
2023/06/06 01:32:25;;;;;;;3.53;1.73;;;;;;;;;;5092804;28;20402;-77
2023/06/06 01:35:00;;;;;;;4.83;2.07;;;;;;;;;;5074905;28;20484;-77
2023/06/06 01:37:48;;;;;;;5.50;1.60;;;;;;;;;;5093114;28;20216;-83
2023/06/06 01:40:16;;;;;;;4.30;2.30;;;;;;;;;;5093070;28;21154;-77
2023/06/06 01:42:47;;;;;;;4.70;1.70;;;;;;;;;;5092931;28;20415;-77
2023/06/06 01:45:15;;;;;;;3.20;1.80;;;;;;;;;;5093247;28;20436;-82
2023/06/06 01:47:41;;;;;;;3.30;2.67;;;;;;;;;;5096918;28;20412;-79
2023/06/06 01:50:07;;;;;;;3.17;1.83;;;;;;;;;;5097165;28;20872;-79
2023/06/06 01:52:36;;;;;;;2.83;1.13;;;;;;;;;;5097097;28;20460;-76
2023/06/06 01:55:02;;;;;;;4.30;2.00;;;;;;;;;;5097099;28;20850;-77
2023/06/06 01:57:28;;;;;;;4.10;1.50;;;;;;;;;;5097089;28;20408;-85
2023/06/06 01:59:54;;;;;;;3.87;2.00;;;;;;;;;;5096902;28;20410;-77
2023/06/06 02:02:20;;;;;;;6.13;3.57;;;;;;;;;;5096461;28;20513;-76
2023/06/06 02:04:48;;;;;;;3.90;1.50;;;;;;;;;;5096951;28;20410;-81
2023/06/06 02:07:15;;;;;;;4.00;2.03;;;;;;;;;;5096829;28;20403;-77
2023/06/06 02:09:44;;;;;;;5.07;2.30;;;;;;;;;;5096909;28;20420;-76
2023/06/06 02:12:10;;;;;;;3.40;2.37;;;;;;;;;;5096876;28;20984;-75
2023/06/06 02:14:36;;;;;;;4.67;2.40;;;;;;;;;;5064650;28;20479;-79
2023/06/06 02:17:03;;;;;;;3.37;2.30;;;;;;;;;;5076436;28;20431;-76
2023/06/06 02:19:29;;;;;;;3.33;2.47;;;;;;;;;;5076012;28;20409;-76
2023/06/06 02:21:55;;;;;;;4.77;2.10;;;;;;;;;;5076257;28;20431;-79
2023/06/06 02:24:24;;;;;;;3.97;2.40;;;;;;;;;;5076154;28;20417;-77
2023/06/06 02:26:52;;;;;;;4.90;2.20;;;;;;;;;;5076226;28;20592;-82
2023/06/06 02:29:18;;;;;;;2.70;1.93;;;;;;;;;;5076223;28;20475;-83
2023/06/06 02:31:44;;;;;;;4.53;2.40;;;;;;;;;;5076122;28;20413;-83
2023/06/06 02:34:10;;;;;;;5.70;2.10;;;;;;;;;;5075621;28;20573;-77
2023/06/06 02:36:38;;;;;;;4.30;2.70;;;;;;;;;;5058011;28;20421;-82
2023/06/06 02:39:04;;;;;;;3.30;1.87;;;;;;;;;;5076053;28;20266;-82
2023/06/06 02:41:30;;;;;;;2.70;1.90;;;;;;;;;;5075958;28;20466;-76
2023/06/06 02:43:56;;;;;;;4.13;1.80;;;;;;;;;;5075874;28;20420;-83
2023/06/06 02:46:22;;;;;;;8.93;2.87;;;;;;;;;;5075900;28;20791;-83
2023/06/06 02:48:49;;;;;;;3.97;2.50;;;;;;;;;;5075456;28;20981;-76
2023/06/06 02:51:20;;;;;;;3.43;2.80;;;;;;;;;;5075751;28;20193;-78
2023/06/06 02:53:46;;;;;;;2.93;1.40;;;;;;;;;;5075891;28;20464;-78
2023/06/06 02:56:14;;;;;;;3.57;1.83;;;;;;;;;;5075653;28;20417;-77
2023/06/06 02:58:40;;;;;;;4.83;3.70;;;;;;;;;;5075715;28;20236;-81
2023/06/06 03:01:06;;;;;;;4.23;2.43;;;;;;;;;;5075502;28;20448;-78
2023/06/06 03:03:32;;;;;;;6.20;2.40;;;;;;;;;;5075008;28;20452;-86
2023/06/06 03:06:00;;;;;;;3.70;2.50;;;;;;;;;;5075591;28;20746;-86
2023/06/06 03:08:26;;;;;;;4.10;2.57;;;;;;;;;;5075447;28;20412;-87
2023/06/06 03:10:52;;;;;;;3.73;1.93;;;;;;;;;;5075417;28;20416;-87
2023/06/06 03:13:18;;;;;;;5.47;3.17;;;;;;;;;;5075239;28;20194;-77
2023/06/06 03:15:44;;;;;;;5.00;2.33;;;;;;;;;;5075345;28;20424;-88
2023/06/06 03:18:11;;;;;;;5.37;3.30;;;;;;;;;;5074863;28;20416;-77
2023/06/06 03:20:40;;;;;;;4.13;2.90;;;;;;;;;;5075398;28;20427;-90
2023/06/06 03:23:06;;;;;;;4.23;2.87;;;;;;;;;;5057577;28;20421;-78
2023/06/06 03:25:33;;;;;;;6.80;3.07;;;;;;;;;;5075380;28;20465;-90
2023/06/06 03:27:59;;;;;;;4.23;3.37;;;;;;;;;;5075273;28;20412;-85
2023/06/06 03:30:25;;;;;;;5.70;3.40;;;;;;;;;;5057562;28;20506;-82
2023/06/06 03:32:51;;;;;;;4.33;2.53;;;;;;;;;;5074874;28;20442;-77
2023/06/06 03:35:18;;;;;;;3.43;2.43;;;;;;;;;;5075093;28;20571;-76
2023/06/06 03:37:44;;;;;;;4.95;3.88;;;;;;;;;;5056442;28;20595;-88
2023/06/06 03:40:10;;;;;;;4.33;2.60;;;;;;;;;;5075007;28;20515;-87
2023/06/06 03:42:36;;;;;;;6.80;3.50;;;;;;;;;;5075081;28;20502;-76
2023/06/06 03:45:01;;;;;;;5.30;2.63;;;;;;;;;;5074679;28;20940;-89
2023/06/06 03:47:27;;;;;;;4.80;2.93;;;;;;;;;;5074755;28;20464;-76
2023/06/06 03:49:53;;;;;;;6.10;4.07;;;;;;;;;;5074577;28;20421;-76
2023/06/06 03:52:19;;;;;;;3.97;2.83;;;;;;;;;;5074549;28;20650;-77
2023/06/06 03:54:45;;;;;;;7.10;3.77;;;;;;;;;;5074469;28;20469;-85
2023/06/06 03:57:11;;;;;;;5.60;3.17;;;;;;;;;;5074446;28;20405;-81
2023/06/06 03:59:37;;;;;;;6.27;3.60;;;;;;;;;;5074360;28;20474;-76
2023/06/06 04:02:03;;;;;;;5.13;3.40;;;;;;;;;;5073920;28;20455;-81
2023/06/06 04:04:32;;;;;;;5.03;3.60;;;;;;;;;;5074429;28;20421;-76
2023/06/06 04:06:58;;;;;;;5.93;3.13;;;;;;;;;;5074349;28;20413;-85
2023/06/06 04:09:24;;;;;;;4.77;2.50;;;;;;;;;;5073694;28;20417;-85
2023/06/06 04:11:50;;;;;;;5.00;3.30;;;;;;;;;;5074107;28;20418;-76
2023/06/06 04:14:16;;;;;;;6.20;2.97;;;;;;;;;;5074077;28;20476;-77
2023/06/06 04:16:45;;;;;;;3.47;2.27;;;;;;;;;;5074049;28;20924;-81
2023/06/06 04:19:11;;;;;;;4.63;3.10;;;;;;;;;;5073560;28;20409;-77
2023/06/06 04:21:37;;;;;;;5.83;5.23;;;;;;;;;;5073928;28;20408;-75
2023/06/06 04:24:03;;;;;;;3.90;2.47;;;;;;;;;;5073918;28;20497;-79
2023/06/06 04:26:33;;;;;;;4.90;2.90;;;;;;;;;;5073741;28;20497;-79
2023/06/06 04:28:59;;;;;;;5.90;3.27;;;;;;;;;;5073775;28;20499;-81
2023/06/06 04:31:26;;;;;;;4.00;3.43;;;;;;;;;;5073123;28;20950;-76
2023/06/06 04:33:54;;;;;;;5.90;3.77;;;;;;;;;;5072402;28;20457;-76
2023/06/06 04:36:21;;;;;;;5.03;3.40;;;;;;;;;;5054827;28;20420;-77
2023/06/06 04:38:48;;;;;;;5.03;3.93;;;;;;;;;;5072651;28;20396;-76
2023/06/06 04:41:15;;;;;;;5.87;3.80;;;;;;;;;;5072737;28;20410;-76
2023/06/06 04:43:42;;;;;;;7.30;4.10;;;;;;;;;;5072656;28;20410;-76
2023/06/06 04:46:08;;;;;;;4.33;2.80;;;;;;;;;;5072993;28;20407;-75
2023/06/06 04:48:34;;;;;;;5.80;3.53;;;;;;;;;;5073205;28;20457;-76
2023/06/06 04:51:01;;;;;;;5.37;3.40;;;;;;;;;;5073355;28;20473;-75
2023/06/06 04:53:27;;;;;;;5.37;3.73;;;;;;;;;;5073408;28;20465;-79
2023/06/06 04:55:56;;;;;;;5.10;4.03;;;;;;;;;;5073397;28;20413;-79
2023/06/06 04:58:22;;;;;;;9.10;6.67;;;;;;;;;;5073357;28;20763;-78
2023/06/06 05:00:49;;;;;;;5.57;3.57;;;;;;;;;;5073296;28;20411;-77
2023/06/06 05:03:19;;;;;;;5.53;3.27;;;;;;;;;;5072704;28;20232;-78
2023/06/06 05:05:48;;;;;;;7.47;3.43;;;;;;;;;;5073296;28;20552;-78
2023/06/06 05:08:14;;;;;;;8.60;4.50;;;;;;;;;;5073020;28;20438;-77
2023/06/06 05:10:40;;;;;;;27.83;26.13;;;;;;;;;;5073106;28;20803;-77
2023/06/06 05:13:06;;;;;;;6.37;4.03;;;;;;;;;;5073081;28;20413;-77
2023/06/06 05:15:32;;;;;;;7.60;3.40;;;;;;;;;;5074902;28;20429;-76
2023/06/06 05:17:58;;;;;;;9.33;8.40;;;;;;;;;;5092959;28;20170;-76
2023/06/06 05:20:24;;;;;;;6.30;2.87;;;;;;;;;;5092433;28;20179;-78
2023/06/06 05:22:50;;;;;;;6.90;3.67;;;;;;;;;;5093287;28;20200;-77
2023/06/06 05:25:16;;;;;;;4.50;2.80;;;;;;;;;;5093240;28;20979;-76
2023/06/06 05:27:48;;;;;;;5.57;2.87;;;;;;;;;;5086602;28;20420;-76
2023/06/06 05:30:14;;;;;;;4.80;2.40;;;;;;;;;;5072962;28;20408;-80
2023/06/06 05:32:40;;;;;;;6.23;3.73;;;;;;;;;;5072386;28;20431;-76
2023/06/06 05:35:09;;;;;;;12.67;5.13;;;;;;;;;;5072679;28;20806;-77
2023/06/06 05:37:35;;;;;;;4.20;3.20;;;;;;;;;;5072913;28;20563;-76
2023/06/06 05:40:01;;;;;;;4.70;2.50;;;;;;;;;;5072454;28;20452;-77
2023/06/06 05:42:27;;;;;;;6.70;2.50;;;;;;;;;;5072815;28;20207;-82
2023/06/06 05:44:53;;;;;;;4.07;2.13;;;;;;;;;;5071631;28;20446;-77
2023/06/06 05:47:18;;;;;;;7.60;3.03;;;;;;;;;;5072445;28;20174;-78
2023/06/06 05:49:44;;;;;;;4.53;2.20;;;;;;;;;;5072700;28;20180;-75
2023/06/06 05:52:10;;;;;;;4.07;2.50;;;;;;;;;;5072621;28;20174;-78
2023/06/06 05:54:36;;;;;;;3.80;2.20;;;;;;;;;;5072443;28;20269;-74
2023/06/06 05:57:18;;;;;;;4.53;2.70;;;;;;;;;;5072545;28;20519;-76
2023/06/06 05:59:44;;;;;;;3.07;1.57;;;;;;;;;;5072658;28;20397;-77
2023/06/06 06:02:13;;;;;;;3.03;1.70;;;;;;;;;;5072173;28;20467;-75
2023/06/06 06:04:39;;;;;;;2.60;1.40;;;;;;;;;;5072648;28;20416;-76
2023/06/06 06:07:05;;;;;;;4.43;2.33;;;;;;;;;;5072616;28;20414;-76
2023/06/06 06:09:34;;;;;;;3.37;1.87;;;;;;;;;;5072560;28;20226;-75
2023/06/06 06:12:00;;;;;;;4.83;2.13;;;;;;;;;;5072557;28;20441;-78
2023/06/06 06:14:25;;;;;;;3.90;2.27;;;;;;;;;;5071081;28;21102;-78
2023/06/06 06:16:51;;;;;;;2.60;1.50;;;;;;;;;;5071936;28;20167;-74
2023/06/06 06:19:17;;;;;;;5.83;2.47;;;;;;;;;;5072441;28;20501;-75
2023/06/06 06:21:43;;;;;;;5.47;2.23;;;;;;;;;;5072390;28;20421;-77
2023/06/06 06:24:12;;;;;;;1.73;1.63;;;;;;;;;;5072451;28;20173;-78
2023/06/06 06:26:41;;;;;;;3.33;1.77;;;;;;;;;;5072303;28;20407;-75
2023/06/06 06:29:07;;;;;;;5.77;2.20;;;;;;;;;;5072307;28;20416;-78
2023/06/06 06:31:33;;;;;;;2.37;1.53;;;;;;;;;;5072711;28;20418;-75
2023/06/06 06:33:59;;;;;;;5.57;4.70;;;;;;;;;;5075928;28;20205;-78
2023/06/06 06:36:25;;;;;;;2.67;1.50;;;;;;;;;;5075918;28;20453;-79
2023/06/06 06:38:51;;;;;;;2.93;1.23;;;;;;;;;;5074616;28;20432;-77
2023/06/06 06:41:16;;;;;;;3.53;1.60;;;;;;;;;;5075948;28;20181;-77
2023/06/06 06:43:42;;;;;;;4.93;1.60;;;;;;;;;;5075705;28;20906;-78
2023/06/06 06:46:08;;;;;;;9.20;8.33;;;;;;;;;;5075744;28;20216;-78
2023/06/06 06:48:34;;;;;;;2.60;1.73;;;;;;;;;;5075348;28;20915;-79
2023/06/06 06:51:00;;;;;;;3.03;2.07;;;;;;;;;;5075622;28;20178;-77
2023/06/06 06:53:30;;;;;;;2.73;1.20;;;;;;;;;;5075389;28;20452;-79
2023/06/06 06:55:56;;;;;;;3.97;1.70;;;;;;;;;;5083511;28;20469;-78
2023/06/06 06:58:25;;;;;;;3.07;1.13;;;;;;;;;;5083333;28;20441;-77
2023/06/06 07:00:53;;;;;;;3.90;1.70;;;;;;;;;;5075544;28;20215;-75
2023/06/06 07:03:19;;;;;;;3.40;1.47;;;;;;;;;;5075139;28;20454;-75
2023/06/06 07:05:45;;;;;;;1.70;1.10;;;;;;;;;;5074308;28;20419;-77
2023/06/06 07:08:10;;;;;;;2.37;1.80;;;;;;;;;;5075384;28;20899;-77
2023/06/06 07:10:36;;;;;;;3.63;1.43;;;;;;;;;;5075345;28;20254;-78
2023/06/06 07:13:02;;;;;;;3.27;1.30;;;;;;;;;;5073855;28;20204;-75
2023/06/06 07:15:28;;;;;;;1.90;1.23;;;;;;;;;;5075407;28;20177;-76
2023/06/06 07:17:55;;;;;;;2.10;0.90;;;;;;;;;;5074954;28;20418;-76
2023/06/06 07:20:23;;;;;;;3.20;1.77;;;;;;;;;;5075347;28;20625;-75
2023/06/06 07:22:53;;;;;;;3.07;1.63;;;;;;;;;;5075193;28;20407;-76
2023/06/06 07:25:19;;;;;;;2.13;1.13;;;;;;;;;;5075060;28;20443;-75
2023/06/06 07:27:45;;;;;;;2.50;1.43;;;;;;;;;;5075127;28;20804;-76
2023/06/06 07:30:14;;;;;;;3.53;1.23;;;;;;;;;;5074978;28;20450;-76
2023/06/06 07:32:45;;;;;;;4.03;1.37;;;;;;;;;;5074607;28;20169;-75
2023/06/06 07:35:11;;;;;;;2.47;1.00;;;;;;;;;;5074886;28;20474;-75
2023/06/06 07:37:37;;;;;;;1.90;0.90;;;;;;;;;;5074866;28;20403;-75
2023/06/06 07:40:05;;;;;;;2.20;1.20;;;;;;;;;;5074972;28;20472;-76
2023/06/06 07:42:31;;;;;;;3.40;1.30;;;;;;;;;;5074514;28;20472;-75
2023/06/06 07:44:58;;;;;;;2.57;1.27;;;;;;;;;;5074153;28;20503;-76
2023/06/06 07:47:24;;;;;;;4.07;1.23;;;;;;;;;;5074135;28;20438;-76
2023/06/06 07:49:50;;;;;;;2.27;1.30;;;;;;;;;;5074555;28;20411;-76
2023/06/06 07:52:16;;;;;;;2.20;1.37;;;;;;;;;;5074705;28;20577;-75
2023/06/06 07:54:43;;;;;;;2.23;1.47;;;;;;;;;;5074537;28;20477;-75
2023/06/06 07:57:09;;;;;;;1.90;1.20;;;;;;;;;;5074549;28;20892;-75
2023/06/06 07:59:36;;;;;;;2.63;1.07;;;;;;;;;;5074554;28;20413;-76
2023/06/06 08:02:02;;;;;;;2.10;1.03;;;;;;;;;;5072643;28;20565;-77
2023/06/06 08:04:28;;;;;;;4.10;1.50;;;;;;;;;;5074477;28;20411;-76
2023/06/06 08:06:54;;;;;;;3.77;1.07;;;;;;;;;;5075806;28;20502;-76
2023/06/06 08:09:20;;;;;;;2.50;1.23;;;;;;;;;;5076024;28;20515;-75
2023/06/06 08:11:46;;;;;;;1.40;1.10;;;;;;;;;;5074253;28;20637;-76
2023/06/06 08:14:12;;;;;;;4.60;1.77;;;;;;;;;;5072776;28;20469;-76
2023/06/06 08:16:38;;;;;;;2.43;1.73;;;;;;;;;;5073834;28;20502;-75
2023/06/06 08:19:04;;;;;;;2.37;1.10;;;;;;;;;;5074142;28;20169;-76
2023/06/06 08:21:30;;;;;;;2.10;1.30;;;;;;;;;;5074062;28;20418;-75
2023/06/06 08:23:57;;;;;;;2.77;1.30;;;;;;;;;;5074043;28;20868;-77
2023/06/06 08:26:25;;;;;;;2.60;1.20;;;;;;;;;;5073991;28;20172;-76
2023/06/06 08:28:51;;;;;;;2.20;0.77;;;;;;;;;;5073987;28;20403;-76
2023/06/06 08:31:17;;;;;;;2.53;1.00;;;;;;;;;;5072855;28;20399;-75
2023/06/06 08:33:43;;;;;;;2.10;1.20;;;;;;;;;;5073671;28;20477;-75
2023/06/06 08:36:09;;;;;;;2.27;1.23;;;;;;;;;;5073749;28;20173;-75
2023/06/06 08:38:36;;;;;;;1.93;1.17;;;;;;;;;;5073296;28;20181;-83
2023/06/06 08:41:02;;;;;;;4.03;1.60;;;;;;;;;;5067951;28;20889;-82
2023/06/06 08:43:28;;;;;;;3.93;1.27;;;;;;;;;;5091347;28;20419;-82
2023/06/06 08:45:57;;;;;;;2.97;1.10;;;;;;;;;;5092087;28;20442;-82
2023/06/06 08:48:35;;;;;;;3.27;1.27;;;;;;;;;;5091118;28;20414;-82
2023/06/06 08:51:01;;;;;;;2.57;1.03;;;;;;;;;;5091295;28;20410;-81
2023/06/06 08:53:28;;;;;;;3.07;1.47;;;;;;;;;;5092482;28;20450;-81
2023/06/06 08:55:57;;;;;;;1.23;0.73;;;;;;;;;;5092233;28;20800;-81
2023/06/06 08:58:23;;;;;;;2.70;0.90;;;;;;;;;;5092497;28;20430;-81
2023/06/06 09:00:49;;;;;;;3.43;1.40;;;;;;;;;;5092366;28;20441;-84
2023/06/06 09:03:19;;;;;;;1.70;1.07;;;;;;;;;;5077436;28;20463;-77
2023/06/06 09:05:46;;;;;;;1.40;0.83;;;;;;;;;;5072900;28;20423;-78
2023/06/06 09:08:13;;;;;;;1.67;1.20;;;;;;;;;;5073103;28;20500;-78
2023/06/06 09:10:39;;;;;;;1.73;0.97;;;;;;;;;;5073177;28;20443;-78
2023/06/06 09:13:07;;;;;;;2.93;1.00;;;;;;;;;;5073153;28;20400;-78
2023/06/06 09:15:33;;;;;;;2.70;1.03;;;;;;;;;;5073091;28;20176;-77
2023/06/06 09:18:01;;;;;;;2.60;1.03;;;;;;;;;;5072703;28;20411;-78
2023/06/06 09:20:27;;;;;;;1.53;1.20;;;;;;;;;;5073095;28;20664;-78
2023/06/06 09:22:57;;;;;;;1.20;0.63;;;;;;;;;;5073023;28;20411;-77
2023/06/06 09:25:24;;;;;;;2.07;0.97;;;;;;;;;;5073169;28;20223;-77
2023/06/06 09:27:58;;;;;;;1.10;0.90;;;;;;;;;;5072976;28;20469;-78
2023/06/06 09:30:24;;;;;;;1.20;0.63;;;;;;;;;;5073014;28;20411;-78
2023/06/06 09:32:58;;;;;;;1.80;1.60;;;;;;;;;;5072580;28;20414;-78
2023/06/06 09:35:25;;;;;;;3.83;2.00;;;;;;;;;;5072883;28;20470;-78
2023/06/06 09:37:52;;;;;;;4.23;1.97;;;;;;;;;;5073010;28;20423;-78
2023/06/06 09:40:19;;;;;;;3.47;1.63;;;;;;;;;;5072955;28;20840;-78
2023/06/06 09:42:45;;;;;;;1.30;1.20;;;;;;;;;;5072920;28;20423;-78
2023/06/06 09:45:12;;;;;;;1.80;1.20;;;;;;;;;;5072784;28;20903;-79
2023/06/06 09:47:45;;;;;;;1.70;1.30;;;;;;;;;;5072381;28;20501;-79
2023/06/06 09:50:13;;;;;;;1.90;1.40;;;;;;;;;;5072741;28;20423;-79
2023/06/06 09:52:39;;;;;;;2.10;1.77;;;;;;;;;;5072808;28;20932;-78
2023/06/06 09:55:06;;;;;;;2.00;1.43;;;;;;;;;;5072701;28;20545;-79
2023/06/06 09:57:34;;;;;;;4.50;1.60;;;;;;;;;;5072755;28;20532;-78
2023/06/06 10:00:10;;;;;;;4.33;1.97;;;;;;;;;;5071320;28;20888;-79
2023/06/06 10:02:40;;;;;;;2.07;1.90;;;;;;;;;;5072041;28;20454;-78
2023/06/06 10:05:07;;;;;;;2.60;1.60;;;;;;;;;;5072718;28;20427;-78
2023/06/06 10:07:33;;;;;;;3.17;1.60;;;;;;;;;;5075103;28;20414;-78
2023/06/06 10:09:59;;;;;;;2.53;1.70;;;;;;;;;;5076551;28;20450;-78
2023/06/06 10:12:29;;;;;;;2.40;1.30;;;;;;;;;;5076615;28;20418;-79
2023/06/06 10:14:56;;;;;;;1.93;1.33;;;;;;;;;;5076448;28;20470;-79
2023/06/06 10:17:24;;;;;;;2.23;1.67;;;;;;;;;;5076114;28;20426;-79
2023/06/06 10:19:52;;;;;;;2.17;1.20;;;;;;;;;;5076446;28;20934;-79
2023/06/06 10:22:18;;;;;;;2.40;1.43;;;;;;;;;;5076400;28;20426;-80
2023/06/06 10:24:44;;;;;;;2.60;1.27;;;;;;;;;;5076320;28;20419;-79
2023/06/06 10:27:18;;;;;;;1.90;1.50;;;;;;;;;;5074998;28;20465;-78
2023/06/06 10:29:54;;;;;;;2.13;1.33;;;;;;;;;;5076173;28;20181;-77
2023/06/06 10:32:25;;;;;;;1.67;1.40;;;;;;;;;;5075717;28;20417;-77
2023/06/06 10:34:52;;;;;;;1.60;1.43;;;;;;;;;;5074750;28;20470;-77
2023/06/06 10:37:22;;;;;;;2.10;1.33;;;;;;;;;;5075906;28;20742;-78
2023/06/06 10:39:58;;;;;;;2.53;1.70;;;;;;;;;;5075725;28;20465;-78
2023/06/06 10:42:34;;;;;;;1.77;1.67;;;;;;;;;;5075811;28;20746;-78
2023/06/06 10:45:00;;;;;;;1.77;1.43;;;;;;;;;;5075780;28;20399;-77
2023/06/06 10:47:30;;;;;;;3.07;1.60;;;;;;;;;;5075386;28;20513;-78
2023/06/06 10:50:11;;;;;;;2.23;1.30;;;;;;;;;;5075693;28;20177;-78
2023/06/06 10:52:57;;;;;;;1.50;1.30;;;;;;;;;;5075483;28;20403;-79
2023/06/06 10:55:23;;;;;;;3.80;1.57;;;;;;;;;;5075230;28;21003;-78
2023/06/06 10:57:53;;;;;;;1.93;1.37;;;;;;;;;;5075471;28;20510;-78
2023/06/06 11:00:31;;;;;;;3.10;1.57;;;;;;;;;;5075578;28;20446;-77
2023/06/06 11:02:58;;;;;;;3.63;1.67;;;;;;;;;;5074942;28;20960;-77
2023/06/06 11:05:24;;;;;;;1.97;1.47;;;;;;;;;;5074179;28;20447;-78
2023/06/06 11:07:51;;;;;;;1.53;1.27;;;;;;;;;;5075379;28;20452;-79
2023/06/06 11:10:20;;;;;;;2.40;1.03;;;;;;;;;;5074129;28;20411;-79
2023/06/06 11:12:48;;;;;;;1.83;1.60;;;;;;;;;;5075394;28;20410;-78
2023/06/06 11:15:26;;;;;;;2.50;1.40;;;;;;;;;;5075203;28;20470;-77
2023/06/06 11:17:59;;;;;;;1.67;1.20;;;;;;;;;;5073880;28;20903;-78
2023/06/06 11:20:27;;;;;;;2.10;1.47;;;;;;;;;;5075261;28;20528;-77
2023/06/06 11:23:03;;;;;;;2.60;1.40;;;;;;;;;;5075130;28;20760;-79
2023/06/06 11:25:30;;;;;;;2.30;1.80;;;;;;;;;;5074998;28;20763;-79
2023/06/06 11:27:57;;;;;;;1.77;1.50;;;;;;;;;;5075182;28;20403;-78
2023/06/06 11:30:24;;;;;;;1.80;1.00;;;;;;;;;;5074741;28;20404;-78
2023/06/06 11:32:50;;;;;;;2.00;1.40;;;;;;;;;;5074504;28;20411;-77
2023/06/06 11:35:21;;;;;;;2.60;1.43;;;;;;;;;;5074521;28;20525;-78
2023/06/06 11:37:49;;;;;;;1.97;1.23;;;;;;;;;;5074828;28;20461;-79
2023/06/06 11:40:15;;;;;;;1.67;1.20;;;;;;;;;;5074672;28;20415;-79
2023/06/06 11:42:43;;;;;;;3.83;1.43;;;;;;;;;;5074614;28;20544;-79
2023/06/06 11:45:12;;;;;;;2.40;1.37;;;;;;;;;;5074679;28;20173;-80
2023/06/06 11:47:38;;;;;;;2.50;1.17;;;;;;;;;;5074351;28;20419;-79
2023/06/06 11:50:04;;;;;;;1.40;1.10;;;;;;;;;;5074569;28;21220;-79
2023/06/06 11:52:30;;;;;;;2.90;1.70;;;;;;;;;;5074639;28;20180;-80
2023/06/06 11:55:04;;;;;;;1.50;1.23;;;;;;;;;;5074503;28;20471;-80
2023/06/06 11:57:30;;;;;;;3.53;1.90;;;;;;;;;;5070994;28;20184;-78
2023/06/06 12:00:07;;;;;;;3.93;1.67;;;;;;;;;;5079901;28;20411;-78
2023/06/06 12:02:33;;;;;;;2.00;1.23;;;;;;;;;;5072943;28;20459;-78
2023/06/06 12:04:59;;;;;;;1.40;0.80;;;;;;;;;;5074056;28;20433;-80
2023/06/06 12:07:25;;;;;;;2.53;1.20;;;;;;;;;;5074157;28;20201;-80
2023/06/06 12:10:00;;;;;;;2.90;1.00;;;;;;;;;;5073728;28;20173;-77
2023/06/06 12:12:26;;;;;;;2.80;1.30;;;;;;;;;;5056110;28;20305;-78
2023/06/06 12:14:56;;;;;;;1.87;1.47;;;;;;;;;;5073825;28;20466;-78
2023/06/06 12:17:25;;;;;;;2.93;1.63;;;;;;;;;;5073582;28;20498;-78
2023/06/06 12:19:54;;;;;;;3.77;1.60;;;;;;;;;;5073845;28;20751;-78
2023/06/06 12:22:32;;;;;;;1.80;1.30;;;;;;;;;;5073789;28;20454;-77
2023/06/06 12:24:58;;;;;;;2.30;1.10;;;;;;;;;;5073603;28;20411;-78
2023/06/06 12:27:29;;;;;;;3.47;1.10;;;;;;;;;;5073821;28;20891;-79
2023/06/06 12:29:56;;;;;;;1.70;1.40;;;;;;;;;;5054617;28;20226;-77
2023/06/06 12:32:26;;;;;;;2.30;1.10;;;;;;;;;;5072895;28;20410;-79
2023/06/06 12:35:02;;;;;;;3.10;1.20;;;;;;;;;;5073586;28;20478;-78
2023/06/06 12:37:41;;;;;;;4.17;1.20;;;;;;;;;;5072791;28;20436;-78
2023/06/06 12:40:18;;;;;;;1.80;1.10;;;;;;;;;;5055222;28;20786;-79
2023/06/06 12:43:04;;;;;;;2.83;1.67;;;;;;;;;;5073978;28;20919;-77
2023/06/06 12:45:30;;;;;;;1.60;1.20;;;;;;;;;;5092848;28;20422;-77
2023/06/06 12:47:57;;;;;;;1.83;1.70;;;;;;;;;;5093807;28;20452;-78
2023/06/06 12:50:23;;;;;;;2.03;1.13;;;;;;;;;;5093417;28;20473;-78
2023/06/06 12:52:50;;;;;;;1.30;0.87;;;;;;;;;;5093657;28;20403;-78
2023/06/06 12:55:19;;;;;;;2.20;0.97;;;;;;;;;;5093315;28;20504;-78
2023/06/06 12:57:45;;;;;;;2.30;1.30;;;;;;;;;;5075323;28;20410;-78
2023/06/06 13:00:13;;;;;;;1.30;0.90;;;;;;;;;;5075446;28;20414;-78
2023/06/06 13:02:39;;;;;;;2.20;1.30;;;;;;;;;;5092929;28;20830;-78
2023/06/06 13:05:05;;;;;;;2.00;1.40;;;;;;;;;;5093492;28;20414;-78
2023/06/06 13:07:32;;;;;;;5.07;2.07;;;;;;;;;;5093367;28;20402;-77
2023/06/06 13:09:59;;;;;;;2.60;1.40;;;;;;;;;;5093201;28;20758;-78
2023/06/06 13:12:28;;;;;;;1.93;1.50;;;;;;;;;;5093033;28;20411;-77
2023/06/06 13:14:56;;;;;;;3.30;1.50;;;;;;;;;;5093014;28;20474;-77
2023/06/06 13:17:22;;;;;;;3.57;1.50;;;;;;;;;;5092700;28;20402;-77
2023/06/06 13:19:51;;;;;;;2.40;1.70;;;;;;;;;;5074252;28;20457;-77
2023/06/06 13:22:17;;;;;;;2.17;1.50;;;;;;;;;;5092910;28;20417;-77
2023/06/06 13:24:43;;;;;;;4.00;1.47;;;;;;;;;;5092706;28;20410;-78
2023/06/06 13:27:10;;;;;;;2.10;1.40;;;;;;;;;;5074697;28;20941;-78
2023/06/06 13:29:36;;;;;;;2.00;1.13;;;;;;;;;;5092266;28;20651;-77
2023/06/06 13:32:03;;;;;;;2.03;1.57;;;;;;;;;;5092201;28;20410;-77
2023/06/06 13:34:29;;;;;;;1.73;1.30;;;;;;;;;;5072374;28;20588;-78
2023/06/06 13:36:55;;;;;;;1.70;1.23;;;;;;;;;;5072562;28;20491;-77
2023/06/06 13:39:21;;;;;;;1.47;1.10;;;;;;;;;;5072425;28;20498;-76
2023/06/06 13:41:48;;;;;;;2.10;1.40;;;;;;;;;;5071743;28;20180;-77
2023/06/06 13:44:17;;;;;;;2.90;1.60;;;;;;;;;;5072510;28;20411;-79
2023/06/06 13:46:44;;;;;;;3.63;1.23;;;;;;;;;;5070765;28;20506;-77
2023/06/06 13:49:12;;;;;;;3.90;1.47;;;;;;;;;;5072485;28;20773;-77
2023/06/06 13:51:38;;;;;;;2.00;1.30;;;;;;;;;;5072459;28;20447;-77
2023/06/06 13:54:04;;;;;;;3.00;1.70;;;;;;;;;;5071019;28;20856;-77
2023/06/06 13:56:30;;;;;;;2.20;1.90;;;;;;;;;;5072325;28;20416;-77
2023/06/06 13:58:56;;;;;;;6.37;2.07;;;;;;;;;;5072339;28;20531;-78
2023/06/06 14:01:22;;;;;;;2.10;1.33;;;;;;;;;;5071809;28;20419;-77
2023/06/06 14:03:49;;;;;;;1.47;1.23;;;;;;;;;;5072424;28;20528;-77
2023/06/06 14:06:15;;;;;;;1.70;1.43;;;;;;;;;;5072228;28;20416;-78
2023/06/06 14:08:41;;;;;;;2.13;1.37;;;;;;;;;;5072262;28;20919;-79
2023/06/06 14:11:13;;;;;;;2.10;1.53;;;;;;;;;;5072368;28;20458;-79
2023/06/06 14:13:39;;;;;;;5.10;1.47;;;;;;;;;;5071911;28;20478;-76
2023/06/06 14:16:05;;;;;;;3.47;1.93;;;;;;;;;;5071618;28;21186;-77
2023/06/06 14:18:31;;;;;;;2.60;1.67;;;;;;;;;;5070813;28;20469;-76
2023/06/06 14:21:10;;;;;;;2.27;1.73;;;;;;;;;;5070735;28;20415;-76
2023/06/06 14:23:40;;;;;;;1.83;1.43;;;;;;;;;;5072239;28;20172;-76
2023/06/06 14:26:06;;;;;;;4.07;2.37;;;;;;;;;;5072014;28;20416;-76
2023/06/06 14:28:32;;;;;;;2.03;1.60;;;;;;;;;;5072066;28;20414;-76
2023/06/06 14:30:58;;;;;;;2.87;1.60;;;;;;;;;;5070391;28;20419;-76
2023/06/06 14:33:24;;;;;;;2.70;1.67;;;;;;;;;;5071865;28;21002;-76
2023/06/06 14:35:50;;;;;;;2.70;1.33;;;;;;;;;;5081531;28;20177;-77
2023/06/06 14:38:16;;;;;;;2.07;1.67;;;;;;;;;;5091454;28;20815;-76
2023/06/06 14:40:42;;;;;;;3.13;2.10;;;;;;;;;;5092108;28;20406;-77
2023/06/06 14:43:08;;;;;;;2.00;1.53;;;;;;;;;;5092141;28;20898;-77
2023/06/06 14:45:34;;;;;;;3.03;1.70;;;;;;;;;;5073763;28;20180;-76